createdAt,value
2022-08-27T00:02:29.186Z,31.67
2022-08-27T00:08:31.450Z,28.17
2022-08-27T00:14:35.948Z,37.95
2022-08-27T00:20:38.398Z,34.33
2022-08-27T00:26:43.317Z,34.40
2022-08-27T00:32:46.301Z,30.85
2022-08-27T00:38:49.585Z,35.78
2022-08-27T00:44:56.727Z,47.38
2022-08-27T00:50:59.122Z,38.90
2022-08-27T00:57:01.900Z,39.22
2022-08-27T01:03:04.581Z,28.75
2022-08-27T01:09:12.497Z,29.83
2022-08-27T01:15:20.111Z,25.83
2022-08-27T01:21:29.369Z,64.10
2022-08-27T01:27:32.082Z,38.90
2022-08-27T01:33:34.328Z,40.78
2022-08-27T01:45:46.739Z,37.75
2022-08-27T01:51:48.912Z,39.17
2022-08-27T01:57:52.051Z,42.22
2022-08-27T02:03:54.263Z,57.33
2022-08-27T02:09:56.650Z,53.53
2022-08-27T02:15:59.153Z,30.95
2022-08-27T02:22:01.593Z,58.92
2022-08-27T02:28:05.130Z,38.78
2022-08-27T02:34:07.679Z,45.83
2022-08-27T02:40:11.525Z,49.72
2022-08-27T02:46:14.235Z,41.97
2022-08-27T02:52:17.550Z,28.85
2022-08-27T02:58:27.611Z,42.05
2022-08-27T03:04:29.995Z,30.42
2022-08-27T03:16:35.889Z,30.58
2022-08-27T03:22:40.445Z,36.92
2022-08-27T03:28:42.731Z,39.35
2022-08-27T03:34:44.834Z,36.63
2022-08-27T03:40:47.596Z,27.25
2022-08-27T03:46:51.706Z,34.03
2022-08-27T03:52:53.848Z,30.90
2022-08-27T03:58:56.092Z,28.63
2022-08-27T04:04:58.470Z,34.85
2022-08-27T04:17:03.366Z,27.83
2022-08-27T04:23:06.058Z,24.55
2022-08-27T04:29:08.866Z,52.50
2022-08-27T04:35:12.120Z,42.13
2022-08-27T04:41:20.271Z,39.95
2022-08-27T04:47:22.459Z,23.77
2022-08-27T04:59:27.216Z,51.95
2022-08-27T05:05:29.638Z,41.05
2022-08-27T05:11:35.846Z,53.47
2022-08-27T05:17:38.137Z,46.80
2022-08-27T05:23:40.303Z,45.65
2022-08-27T05:29:42.468Z,49.58
2022-08-27T05:35:49.162Z,42.70
2022-08-27T05:41:52.842Z,26.73
2022-08-27T05:47:58.927Z,44.33
2022-08-27T05:54:08.966Z,34.35
2022-08-27T06:00:30.442Z,44.00
2022-08-27T06:06:37.949Z,52.57
2022-08-27T06:12:40.192Z,39.05
2022-08-27T06:18:45.357Z,44.65
2022-08-27T06:24:47.898Z,47.67
2022-08-27T06:30:50.532Z,42.22
2022-08-27T06:36:53.909Z,52.78
2022-08-27T06:42:56.257Z,30.17
2022-08-27T06:49:01.199Z,56.17
2022-08-27T06:55:04.044Z,41.30
2022-08-27T07:01:18.420Z,75.15
2022-08-27T07:07:35.526Z,73.05
2022-08-27T07:13:41.899Z,72.75
2022-08-27T07:19:44.535Z,63.72
2022-08-27T07:25:47.000Z,57.20
2022-08-27T07:31:49.346Z,44.40
2022-08-27T07:37:51.810Z,59.95
2022-08-27T07:44:12.690Z,60.70
2022-08-27T07:50:15.663Z,44.40
2022-08-27T07:56:18.333Z,58.40
2022-08-27T08:02:20.546Z,55.88
2022-08-27T08:08:23.005Z,47.33
2022-08-27T08:14:25.543Z,62.83
2022-08-27T08:20:54.187Z,49.22
2022-08-27T08:26:50.594Z,55.17
2022-08-27T08:32:52.883Z,50.95
2022-08-27T08:38:55.466Z,64.95
2022-08-27T08:45:00.903Z,53.08
2022-08-27T08:51:22.652Z,68.80
2022-08-27T08:57:31.392Z,56.47
2022-08-27T09:03:42.239Z,70.00
2022-08-27T09:09:50.461Z,63.50
2022-08-27T09:15:58.395Z,63.92
2022-08-27T09:22:11.035Z,44.50
2022-08-27T09:28:46.146Z,53.55
2022-08-27T09:34:48.364Z,48.35
2022-08-27T09:40:52.606Z,67.55
2022-08-27T09:47:02.492Z,41.42
2022-08-27T09:53:05.256Z,83.03
2022-08-27T09:59:36.342Z,65.57
2022-08-27T10:05:45.411Z,55.83
2022-08-27T10:12:00.537Z,66.28
2022-08-27T10:18:20.048Z,76.97
2022-08-27T10:24:28.927Z,52.58
2022-08-27T10:31:08.615Z,54.87
2022-08-27T10:37:52.757Z,61.67
2022-08-27T10:44:07.226Z,47.08
2022-08-27T10:50:39.029Z,64.15
2022-08-27T10:57:26.157Z,46.88
2022-08-27T11:03:47.064Z,69.47
2022-08-27T11:09:56.622Z,56.60
2022-08-27T11:16:03.269Z,52.70
2022-08-27T11:22:26.365Z,69.68
2022-08-27T11:28:39.200Z,55.75
2022-08-27T11:34:50.469Z,52.60
2022-08-27T11:41:11.549Z,63.60
2022-08-27T11:47:20.650Z,100.80
2022-08-27T11:53:29.451Z,108.07
2022-08-27T11:59:34.616Z,228.65
2022-08-27T12:05:44.833Z,116.30
2022-08-27T12:12:04.941Z,100.78
2022-08-27T12:18:24.254Z,105.57
2022-08-27T12:24:50.946Z,66.85
2022-08-27T12:30:58.936Z,93.68
2022-08-27T12:37:02.210Z,69.53
2022-08-27T12:43:14.159Z,107.35
2022-08-27T12:49:38.843Z,73.53
2022-08-27T12:56:18.856Z,86.50
2022-08-27T13:02:38.733Z,112.40
2022-08-27T13:08:40.988Z,59.15
2022-08-27T13:14:43.620Z,68.70
2022-08-27T13:20:52.626Z,94.10
2022-08-27T13:26:55.634Z,71.40
2022-08-27T13:32:58.430Z,85.93
2022-08-27T13:39:03.586Z,80.72
2022-08-27T13:45:08.128Z,74.75
2022-08-27T13:51:12.405Z,62.40
2022-08-27T13:57:28.583Z,56.58
2022-08-27T14:03:34.530Z,75.55
2022-08-27T14:09:43.673Z,74.88
2022-08-27T14:15:48.607Z,85.05
2022-08-27T14:21:52.814Z,79.43
2022-08-27T14:27:57.703Z,58.30
2022-08-27T14:34:00.106Z,71.80
2022-08-27T14:40:02.822Z,74.80
2022-08-27T14:46:09.140Z,62.13
2022-08-27T14:52:12.467Z,92.88
2022-08-27T14:58:15.198Z,55.92
2022-08-27T15:04:17.638Z,76.25
2022-08-27T15:10:20.869Z,75.22
2022-08-27T15:16:34.399Z,81.30
2022-08-27T15:22:38.633Z,53.70
2022-08-27T15:28:46.114Z,72.72
2022-08-27T15:34:53.553Z,48.03
2022-08-27T15:40:57.409Z,48.47
2022-08-27T15:46:59.518Z,65.63
2022-08-27T15:53:05.192Z,62.90
2022-08-27T15:59:07.480Z,89.72
2022-08-27T16:05:11.888Z,88.45
2022-08-27T16:11:14.236Z,82.82
2022-08-27T16:17:16.644Z,65.32
2022-08-27T16:23:20.380Z,70.70
2022-08-27T16:29:22.439Z,75.57
2022-08-27T16:35:25.411Z,45.05
2022-08-27T16:41:28.062Z,65.22
2022-08-27T16:47:30.202Z,65.47
2022-08-27T16:53:35.091Z,35.42
2022-08-27T16:59:37.410Z,34.00
2022-08-27T17:05:40.012Z,61.58
2022-08-27T17:11:45.107Z,68.68
2022-08-27T17:17:47.483Z,65.38
2022-08-27T17:23:52.949Z,54.05
2022-08-27T17:29:55.372Z,56.88
2022-08-27T17:35:58.370Z,48.30
2022-08-27T17:42:01.239Z,60.67
2022-08-27T17:48:04.449Z,52.08
2022-08-27T17:54:34.270Z,78.15
2022-08-27T18:00:36.662Z,37.13
2022-08-27T18:06:39.396Z,35.63
2022-08-27T18:12:43.097Z,50.25
2022-08-27T18:18:45.293Z,59.70
2022-08-27T18:24:47.888Z,46.53
2022-08-27T18:30:50.928Z,54.42
2022-08-27T18:36:53.460Z,77.40
2022-08-27T18:42:56.283Z,44.83
2022-08-27T18:48:58.661Z,86.68
2022-08-27T18:55:01.378Z,65.82
2022-08-27T19:01:05.095Z,59.10
2022-08-27T19:07:07.459Z,77.78
2022-08-27T19:13:10.027Z,74.82
2022-08-27T19:19:15.148Z,74.57
2022-08-27T19:25:18.450Z,98.55
2022-08-27T19:31:20.710Z,96.47
2022-08-27T19:37:26.800Z,91.50
2022-08-27T19:43:29.358Z,60.17
2022-08-27T19:49:31.790Z,86.18
2022-08-27T19:55:34.104Z,98.65
2022-08-27T20:01:36.338Z,104.47
2022-08-27T20:07:40.990Z,69.50
2022-08-27T20:13:50.348Z,83.20
2022-08-27T20:19:53.039Z,66.65
2022-08-27T20:26:00.473Z,75.15
2022-08-27T20:32:04.596Z,67.72
2022-08-27T20:38:07.322Z,79.88
2022-08-27T20:44:09.651Z,85.90
2022-08-27T20:50:13.524Z,87.40
2022-08-27T20:56:15.979Z,117.93
2022-08-27T21:02:23.356Z,87.65
2022-08-27T21:08:25.731Z,89.05
2022-08-27T21:14:28.175Z,83.65
2022-08-27T21:20:32.831Z,75.47
2022-08-27T21:26:36.356Z,70.25
2022-08-27T21:32:38.693Z,73.22
2022-08-27T21:38:41.354Z,106.28
2022-08-27T21:44:43.884Z,79.18
2022-08-27T21:50:46.319Z,96.88
2022-08-27T21:56:49.275Z,91.53
2022-08-27T22:02:51.931Z,89.53
2022-08-27T22:08:54.285Z,80.30
2022-08-27T22:14:56.504Z,72.93
2022-08-27T22:20:59.305Z,106.82
2022-08-27T22:27:01.997Z,83.35
2022-08-27T22:33:04.639Z,65.45
2022-08-27T22:39:07.067Z,92.60
2022-08-27T22:45:10.362Z,77.93
2022-08-27T22:51:14.210Z,91.60
2022-08-27T22:57:16.530Z,67.63
2022-08-27T23:03:18.830Z,103.72
2022-08-27T23:09:21.194Z,81.88
2022-08-27T23:15:25.986Z,76.57
2022-08-27T23:21:28.806Z,76.78
2022-08-27T23:27:31.305Z,77.30
2022-08-27T23:33:33.486Z,61.22
2022-08-27T23:45:40.679Z,76.95
2022-08-27T23:51:43.338Z,80.13
2022-08-27T23:57:45.439Z,58.50
